Newton, New Hampshire
Current Conditions -  °F | °C
As of 11:41 AM on Wednesday 26 Nov 2014 (Local Time) from KLWM Reporting Station
Moderate Rain Moderate Rain  
Wind Chill: 29°   Ceiling: 1300
Heat Index: 36°   Visibility: 3mi
Dew Point: 34°   Wind: 9mph
Humidity: 93%   Direction: 20°NNE
Pressure: 30.15"   Gusts: NA
Location:  42.87°N, 71.03°W
Report Text: KLWM 261641Z 02008KT 3SM RA BR BKN013 OVC019 02/01 A3015 RMK AO2 P0006 T00220011
Loading
Personal Weather Stations






























Interactive Weather Map New forecast layout! Learn more

10-Day Weather Forecast

Advertisements
Track Severe Weather on mobile